createdAt,value
2017-10-12T00:01:25.646Z,100401
2017-10-12T00:03:54.218Z,100399
2017-10-12T00:06:24.055Z,100394
2017-10-12T00:08:52.962Z,100384
2017-10-12T00:11:21.610Z,100378
2017-10-12T00:13:50.211Z,100381
2017-10-12T00:16:18.870Z,100375
2017-10-12T00:18:47.184Z,100368
2017-10-12T00:21:16.035Z,100370
2017-10-12T00:23:44.834Z,100365
2017-10-12T00:26:14.071Z,100377
2017-10-12T00:28:42.846Z,100358
2017-10-12T00:31:11.366Z,100353
2017-10-12T00:33:40.407Z,100357
2017-10-12T00:36:08.990Z,100352
2017-10-12T00:38:37.999Z,100342
2017-10-12T00:41:07.239Z,100334
2017-10-12T00:43:37.111Z,100344
2017-10-12T00:46:06.095Z,100321
2017-10-12T00:48:34.458Z,100322
2017-10-12T00:51:03.377Z,100322
2017-10-12T00:53:32.147Z,100311
2017-10-12T00:56:01.037Z,100313
2017-10-12T00:58:29.671Z,100311
2017-10-12T01:00:58.626Z,100307
2017-10-12T01:03:28.307Z,100298
2017-10-12T01:05:56.871Z,100312
2017-10-12T01:08:27.128Z,100311
2017-10-12T01:10:55.935Z,100310
2017-10-12T01:13:24.984Z,100303
2017-10-12T01:15:54.532Z,100308
2017-10-12T01:18:22.851Z,100300
2017-10-12T01:20:51.678Z,100305
2017-10-12T01:23:20.493Z,100304
2017-10-12T01:25:49.139Z,100302
2017-10-12T01:28:18.547Z,100297
2017-10-12T01:30:48.135Z,100289
2017-10-12T01:33:17.169Z,100297
2017-10-12T01:35:45.579Z,100295
2017-10-12T01:38:15.111Z,100290
2017-10-12T01:40:44.590Z,100281
2017-10-12T01:43:13.323Z,100294
2017-10-12T01:45:43.007Z,100288
2017-10-12T01:48:12.302Z,100279
2017-10-12T01:50:40.717Z,100280
2017-10-12T01:53:09.351Z,100288
2017-10-12T01:55:38.546Z,100282
2017-10-12T01:58:07.233Z,100288
2017-10-12T02:00:35.759Z,100288
2017-10-12T02:03:05.192Z,100290
2017-10-12T02:05:34.458Z,100291
2017-10-12T02:08:03.420Z,100278
2017-10-12T02:10:32.299Z,100294
2017-10-12T02:13:00.992Z,100292
2017-10-12T02:15:29.956Z,100286
2017-10-12T02:17:59.106Z,100280
2017-10-12T02:20:28.029Z,100291
2017-10-12T02:22:57.055Z,100289
2017-10-12T02:25:26.177Z,100283
2017-10-12T02:27:55.095Z,100307
2017-10-12T02:30:23.934Z,100304
2017-10-12T02:32:52.533Z,100295
2017-10-12T02:35:21.169Z,100296
2017-10-12T02:37:50.003Z,100294
2017-10-12T02:40:19.135Z,100292
2017-10-12T02:42:47.922Z,100288
2017-10-12T02:45:17.152Z,100294
2017-10-12T02:47:45.503Z,100296
2017-10-12T02:50:14.863Z,100288
2017-10-12T02:52:44.374Z,100292
2017-10-12T02:55:13.419Z,100290
2017-10-12T02:57:41.775Z,100287
2017-10-12T03:00:10.615Z,100271
2017-10-12T03:02:39.393Z,100272
2017-10-12T03:05:08.699Z,100279
2017-10-12T03:07:37.623Z,100297
2017-10-12T03:10:06.174Z,100308
2017-10-12T03:12:35.164Z,100290
2017-10-12T03:15:04.466Z,100288
2017-10-12T03:17:32.967Z,100301
2017-10-12T03:20:01.763Z,100296
2017-10-12T03:22:30.401Z,100302
2017-10-12T03:24:58.955Z,100296
2017-10-12T03:27:27.899Z,100298
2017-10-12T03:29:57.526Z,100306
2017-10-12T03:32:26.391Z,100307
2017-10-12T03:34:54.706Z,100292
2017-10-12T03:37:23.267Z,100304
2017-10-12T03:39:52.186Z,100304
2017-10-12T03:42:20.497Z,100301
2017-10-12T03:44:50.366Z,100300
2017-10-12T03:47:18.734Z,100307
2017-10-12T03:49:47.706Z,100308
2017-10-12T03:52:17.038Z,100309
2017-10-12T03:54:45.551Z,100301
2017-10-12T03:57:14.362Z,100306
2017-10-12T03:59:43.164Z,100308
2017-10-12T04:02:11.528Z,100305
2017-10-12T04:04:40.023Z,100317
2017-10-12T04:07:08.794Z,100301
2017-10-12T04:09:38.135Z,100308
2017-10-12T04:12:06.457Z,100320
2017-10-12T04:14:35.427Z,100315
2017-10-12T04:17:03.883Z,100316
2017-10-12T04:19:32.648Z,100315
2017-10-12T04:22:01.651Z,100315
2017-10-12T04:24:30.369Z,100302
2017-10-12T04:26:58.719Z,100315
2017-10-12T04:29:27.683Z,100315
2017-10-12T04:31:56.656Z,100321
2017-10-12T04:34:25.259Z,100335
2017-10-12T04:36:55.446Z,100325
2017-10-12T04:39:24.619Z,100322
2017-10-12T04:41:53.431Z,100338
2017-10-12T04:44:22.155Z,100339
2017-10-12T04:46:51.878Z,100348
2017-10-12T04:49:20.875Z,100353
2017-10-12T04:51:49.555Z,100358
2017-10-12T04:54:18.367Z,100364
2017-10-12T04:56:47.035Z,100362
2017-10-12T04:59:15.882Z,100378
2017-10-12T05:01:45.043Z,100367
2017-10-12T05:04:14.277Z,100374
2017-10-12T05:06:43.165Z,100378
2017-10-12T05:09:11.808Z,100373
2017-10-12T05:11:40.999Z,100372
2017-10-12T05:14:09.471Z,100374
2017-10-12T05:16:38.087Z,100387
2017-10-12T05:19:06.904Z,100378
2017-10-12T05:21:35.691Z,100384
2017-10-12T05:24:04.291Z,100386
2017-10-12T05:26:33.076Z,100385
2017-10-12T05:29:01.502Z,100402
2017-10-12T05:31:29.861Z,100400
2017-10-12T05:33:59.273Z,100414
2017-10-12T05:36:28.378Z,100400
2017-10-12T05:38:57.130Z,100407
2017-10-12T05:41:25.918Z,100416
2017-10-12T05:43:55.098Z,100416
2017-10-12T05:46:23.564Z,100416
2017-10-12T05:48:53.039Z,100410
2017-10-12T05:51:21.899Z,100421
2017-10-12T05:53:50.541Z,100421
2017-10-12T05:56:19.075Z,100424
2017-10-12T05:58:47.590Z,100433
2017-10-12T06:01:17.086Z,100444
2017-10-12T06:03:45.400Z,100452
2017-10-12T06:06:13.958Z,100463
2017-10-12T06:08:43.549Z,100461
2017-10-12T06:11:13.013Z,100455
2017-10-12T06:13:42.127Z,100462
2017-10-12T06:16:10.806Z,100481
2017-10-12T06:18:39.498Z,100486
2017-10-12T06:21:09.070Z,100485
2017-10-12T06:23:37.514Z,100493
2017-10-12T06:26:05.887Z,100503
2017-10-12T06:28:34.927Z,100508
2017-10-12T06:31:04.071Z,100517
2017-10-12T06:33:32.666Z,100508
2017-10-12T06:36:01.950Z,100518
2017-10-12T06:38:31.118Z,100522
2017-10-12T06:41:00.243Z,100529
2017-10-12T06:43:29.700Z,100521
2017-10-12T06:45:58.826Z,100524
2017-10-12T06:48:27.692Z,100533
2017-10-12T06:50:56.553Z,100529
2017-10-12T06:53:25.364Z,100541
2017-10-12T06:55:54.128Z,100544
2017-10-12T06:58:22.936Z,100549
2017-10-12T07:00:51.528Z,100563
2017-10-12T07:03:20.151Z,100548
2017-10-12T07:05:49.106Z,100573
2017-10-12T07:08:17.588Z,100567
2017-10-12T07:10:46.796Z,100575
2017-10-12T07:13:15.386Z,100566
2017-10-12T07:15:44.927Z,100583
2017-10-12T07:18:14.172Z,100580
2017-10-12T07:20:42.621Z,100576
2017-10-12T07:23:11.698Z,100593
2017-10-12T07:25:41.166Z,100599
2017-10-12T07:28:09.930Z,100616
2017-10-12T07:30:38.787Z,100618
2017-10-12T07:33:07.381Z,100610
2017-10-12T07:35:36.151Z,100604
2017-10-12T07:38:04.974Z,100622
2017-10-12T07:40:33.927Z,100627
2017-10-12T07:43:02.280Z,100634
2017-10-12T07:45:30.807Z,100640
2017-10-12T07:47:59.585Z,100636
2017-10-12T07:50:28.384Z,100650
2017-10-12T07:52:56.809Z,100629
2017-10-12T07:55:25.382Z,100656
2017-10-12T07:57:54.858Z,100651
2017-10-12T08:00:24.285Z,100645
2017-10-12T08:02:53.188Z,100659
2017-10-12T08:05:22.489Z,100632
2017-10-12T08:07:51.995Z,100662
2017-10-12T08:10:21.371Z,100667
2017-10-12T08:12:50.572Z,100682
2017-10-12T08:15:19.128Z,100689
2017-10-12T08:17:48.362Z,100684
2017-10-12T08:20:17.255Z,100700
2017-10-12T08:22:45.644Z,100706
2017-10-12T08:25:15.002Z,100691
2017-10-12T08:27:44.911Z,100715
2017-10-12T08:30:14.575Z,100707
2017-10-12T08:32:43.124Z,100718
2017-10-12T08:35:11.540Z,100734
2017-10-12T08:37:39.895Z,100720
2017-10-12T08:40:08.728Z,100730
2017-10-12T08:42:38.005Z,100740
2017-10-12T08:45:06.359Z,100737
2017-10-12T08:47:35.071Z,100737
2017-10-12T08:50:03.736Z,100734
2017-10-12T08:52:32.769Z,100760
2017-10-12T08:55:01.128Z,100766
2017-10-12T08:57:30.151Z,100765
2017-10-12T08:59:59.613Z,100767
2017-10-12T09:02:28.864Z,100780
2017-10-12T09:04:58.251Z,100791
2017-10-12T09:07:26.853Z,100791
2017-10-12T09:09:56.271Z,100790
2017-10-12T09:12:24.717Z,100795
2017-10-12T09:14:54.699Z,100792
2017-10-12T09:17:23.334Z,100800
2017-10-12T09:19:52.052Z,100814
2017-10-12T09:22:20.340Z,100812
2017-10-12T09:24:48.742Z,100813
2017-10-12T09:27:17.582Z,100810
2017-10-12T09:29:45.989Z,100819
2017-10-12T09:32:15.279Z,100829
2017-10-12T09:34:44.151Z,100819
2017-10-12T09:37:12.732Z,100833
2017-10-12T09:39:42.068Z,100858
2017-10-12T09:42:10.682Z,100847
2017-10-12T09:44:39.271Z,100848
2017-10-12T09:47:09.453Z,100858
2017-10-12T09:49:38.987Z,100848
2017-10-12T09:52:08.081Z,100871
2017-10-12T09:54:37.080Z,100876
2017-10-12T09:57:06.482Z,100879
2017-10-12T09:59:34.859Z,100888
2017-10-12T10:02:03.820Z,100885
2017-10-12T10:04:32.961Z,100890
2017-10-12T10:07:02.005Z,100897
2017-10-12T10:09:30.346Z,100899
2017-10-12T10:11:58.699Z,100903
2017-10-12T10:14:28.121Z,100913
2017-10-12T10:16:57.400Z,100916
2017-10-12T10:19:26.031Z,100921
2017-10-12T10:21:54.670Z,100920
2017-10-12T10:24:23.426Z,100927
2017-10-12T10:26:51.908Z,100936
2017-10-12T10:29:25.507Z,100947
2017-10-12T10:31:54.775Z,100951
2017-10-12T10:34:23.155Z,100939
2017-10-12T10:36:52.635Z,100951
2017-10-12T10:39:21.296Z,100948
2017-10-12T10:41:50.383Z,100956
2017-10-12T10:44:18.919Z,100963
2017-10-12T10:46:47.359Z,100960
2017-10-12T10:49:15.879Z,100955
2017-10-12T10:51:44.627Z,100971
2017-10-12T10:54:12.927Z,100962
2017-10-12T10:56:41.920Z,100980
2017-10-12T10:59:10.781Z,100974
2017-10-12T11:01:39.492Z,100982
2017-10-12T11:04:08.386Z,100982
2017-10-12T11:06:36.659Z,100991
2017-10-12T11:09:05.443Z,100986
2017-10-12T11:11:34.103Z,100997
2017-10-12T11:14:02.771Z,100978
2017-10-12T11:16:31.194Z,100986
2017-10-12T11:18:59.851Z,100994
2017-10-12T11:21:28.463Z,100994
2017-10-12T11:23:57.019Z,101001
2017-10-12T11:26:25.321Z,101007
2017-10-12T11:28:54.232Z,101019
2017-10-12T11:31:22.772Z,101019
2017-10-12T11:33:51.399Z,101016
2017-10-12T11:36:20.407Z,101033
2017-10-12T11:38:49.426Z,101032
2017-10-12T11:41:18.101Z,101036
2017-10-12T11:43:47.546Z,101041
2017-10-12T11:46:16.248Z,101046
2017-10-12T11:48:44.730Z,101050
2017-10-12T11:51:13.469Z,101043
2017-10-12T11:53:42.170Z,101041
2017-10-12T11:56:11.223Z,101047
2017-10-12T11:58:40.827Z,101059
2017-10-12T12:01:09.676Z,101061
2017-10-12T12:03:38.156Z,101059
2017-10-12T12:06:07.379Z,101063
2017-10-12T12:08:35.768Z,101060
2017-10-12T12:11:04.268Z,101067
2017-10-12T12:13:32.646Z,101071
2017-10-12T12:16:01.671Z,101069
2017-10-12T12:18:30.125Z,101073
2017-10-12T12:20:59.450Z,101103
2017-10-12T12:23:28.143Z,101093
2017-10-12T12:25:56.514Z,101104
2017-10-12T12:28:25.122Z,101109
2017-10-12T12:30:53.767Z,101106
2017-10-12T12:33:22.253Z,101119
2017-10-12T12:35:51.546Z,101094
2017-10-12T12:38:20.118Z,101120
2017-10-12T12:40:49.351Z,101112
2017-10-12T12:43:17.878Z,101119
2017-10-12T12:45:46.644Z,101125
2017-10-12T12:48:15.683Z,101128
2017-10-12T12:50:44.618Z,101128
2017-10-12T12:53:13.391Z,101136
2017-10-12T12:55:42.224Z,101130
2017-10-12T12:58:11.390Z,101139
2017-10-12T13:00:39.929Z,101136
2017-10-12T13:03:08.515Z,101148
2017-10-12T13:05:37.140Z,101160
2017-10-12T13:08:05.978Z,101152
2017-10-12T13:10:34.416Z,101147
2017-10-12T13:13:03.159Z,101167
2017-10-12T13:15:32.638Z,101168
2017-10-12T13:18:01.016Z,101168
2017-10-12T13:20:29.911Z,101163
2017-10-12T13:22:58.754Z,101167
2017-10-12T13:25:27.019Z,101156
2017-10-12T13:27:55.658Z,101146
2017-10-12T13:30:24.123Z,101158
2017-10-12T13:32:53.122Z,101168
2017-10-12T13:35:21.451Z,101163
2017-10-12T13:37:49.954Z,101179
2017-10-12T13:40:18.570Z,101179
2017-10-12T13:42:47.130Z,101191
2017-10-12T13:45:15.590Z,101192
2017-10-12T13:47:44.536Z,101209
2017-10-12T13:50:13.151Z,101198
2017-10-12T13:52:42.728Z,101221
2017-10-12T13:55:11.294Z,101222
2017-10-12T13:57:40.464Z,101215
2017-10-12T14:00:09.145Z,101206
2017-10-12T14:02:37.979Z,101214
2017-10-12T14:05:07.523Z,101224
2017-10-12T14:07:36.055Z,101239
2017-10-12T14:10:04.580Z,101217
2017-10-12T14:12:33.518Z,101225
2017-10-12T14:15:02.453Z,101219
2017-10-12T14:17:31.008Z,101224
2017-10-12T14:19:59.999Z,101225
2017-10-12T14:22:29.126Z,101218
2017-10-12T14:24:57.629Z,101237
2017-10-12T14:27:26.655Z,101235
2017-10-12T14:29:55.035Z,101247
2017-10-12T14:32:23.799Z,101237
2017-10-12T14:34:53.316Z,101243
2017-10-12T14:37:21.955Z,101247
2017-10-12T14:39:51.311Z,101246
2017-10-12T14:42:19.910Z,101248
2017-10-12T14:44:48.627Z,101255
2017-10-12T14:47:17.255Z,101259
2017-10-12T14:49:45.846Z,101257
2017-10-12T14:52:14.454Z,101262
2017-10-12T14:54:43.942Z,101268
2017-10-12T14:57:12.665Z,101265
2017-10-12T14:59:41.392Z,101266
2017-10-12T15:02:11.361Z,101275
2017-10-12T15:04:41.004Z,101271
2017-10-12T15:07:09.841Z,101278
2017-10-12T15:09:38.602Z,101270
2017-10-12T15:12:08.060Z,101269
2017-10-12T15:14:36.711Z,101273
2017-10-12T15:17:05.842Z,101282
2017-10-12T15:19:35.694Z,101269
2017-10-12T15:22:04.751Z,101280
2017-10-12T15:24:33.563Z,101276
2017-10-12T15:27:02.397Z,101291
2017-10-12T15:29:31.467Z,101284
2017-10-12T15:31:59.821Z,101289
2017-10-12T15:34:28.147Z,101291
2017-10-12T15:36:56.799Z,101301
2017-10-12T15:39:26.373Z,101294
2017-10-12T15:41:55.332Z,101298
2017-10-12T15:44:24.275Z,101297
2017-10-12T15:46:53.418Z,101309
2017-10-12T15:49:22.084Z,101312
2017-10-12T15:51:52.015Z,101318
2017-10-12T15:54:20.362Z,101313
2017-10-12T15:56:48.969Z,101328
2017-10-12T15:59:17.863Z,101320
2017-10-12T16:01:46.285Z,101321
2017-10-12T16:04:15.275Z,101321
2017-10-12T16:06:44.264Z,101331
2017-10-12T16:09:12.611Z,101332
2017-10-12T16:11:41.328Z,101332
2017-10-12T16:14:09.998Z,101339
2017-10-12T16:16:38.863Z,101344
2017-10-12T16:19:07.891Z,101343
2017-10-12T16:24:38.623Z,101345
2017-10-12T16:27:07.255Z,101362
2017-10-12T16:29:36.048Z,101361
2017-10-12T16:32:04.366Z,101362
2017-10-12T16:34:33.106Z,101363
2017-10-12T16:37:02.376Z,101360
2017-10-12T16:39:31.256Z,101362
2017-10-12T16:41:59.936Z,101361
2017-10-12T16:44:28.606Z,101369
2017-10-12T16:46:57.721Z,101367
2017-10-12T16:49:26.500Z,101376
2017-10-12T16:51:55.973Z,101380
2017-10-12T16:54:24.826Z,101370
2017-10-12T16:56:53.143Z,101371
2017-10-12T16:59:21.561Z,101365
2017-10-12T17:01:49.931Z,101383
2017-10-12T17:04:18.267Z,101381
2017-10-12T17:06:46.948Z,101383
2017-10-12T17:09:16.193Z,101387
2017-10-12T17:11:45.484Z,101393
2017-10-12T17:14:13.864Z,101394
2017-10-12T17:16:43.315Z,101392
2017-10-12T17:19:12.314Z,101391
2017-10-12T17:21:41.199Z,101397
2017-10-12T17:24:09.708Z,101390
2017-10-12T17:26:38.169Z,101407
2017-10-12T17:29:06.488Z,101396
2017-10-12T17:31:35.218Z,101395
2017-10-12T17:34:04.303Z,101398
2017-10-12T17:36:33.139Z,101397
2017-10-12T17:39:01.962Z,101396
2017-10-12T17:41:31.427Z,101394
2017-10-12T17:43:59.729Z,101397
2017-10-12T17:46:29.001Z,101412
2017-10-12T17:51:25.867Z,101400
2017-10-12T17:53:55.247Z,101405
2017-10-12T17:56:24.361Z,101404
2017-10-12T17:58:52.947Z,101403
2017-10-12T18:01:21.528Z,101408
2017-10-12T18:03:50.018Z,101414
2017-10-12T18:06:18.571Z,101402
2017-10-12T18:08:46.871Z,101406
2017-10-12T18:11:15.475Z,101410
2017-10-12T18:13:44.107Z,101407
2017-10-12T18:16:12.982Z,101419
2017-10-12T18:18:41.299Z,101422
2017-10-12T18:21:10.468Z,101419
2017-10-12T18:23:39.024Z,101429
2017-10-12T18:26:07.575Z,101431
2017-10-12T18:28:36.255Z,101431
2017-10-12T18:31:04.936Z,101443
2017-10-12T18:33:33.634Z,101441
2017-10-12T18:36:02.206Z,101441
2017-10-12T18:38:30.807Z,101442
2017-10-12T18:40:59.526Z,101454
2017-10-12T18:43:28.616Z,101458
2017-10-12T18:45:58.095Z,101456
2017-10-12T18:48:27.134Z,101459
2017-10-12T18:50:55.550Z,101463
2017-10-12T18:53:24.342Z,101456
2017-10-12T18:55:52.969Z,101468
2017-10-12T18:58:22.203Z,101474
2017-10-12T19:00:51.481Z,101460
2017-10-12T19:03:20.117Z,101483
2017-10-12T19:05:49.211Z,101468
2017-10-12T19:08:18.071Z,101486
2017-10-12T19:10:46.557Z,101481
2017-10-12T19:13:15.263Z,101481
2017-10-12T19:15:44.131Z,101481
2017-10-12T19:18:12.699Z,101477
2017-10-12T19:20:41.330Z,101488
2017-10-12T19:23:10.061Z,101476
2017-10-12T19:25:39.540Z,101493
2017-10-12T19:30:37.109Z,101481
2017-10-12T19:35:34.044Z,101485
2017-10-12T19:38:02.422Z,101487
2017-10-12T19:40:30.703Z,101494
2017-10-12T19:42:59.265Z,101496
2017-10-12T19:45:28.191Z,101491
2017-10-12T19:47:57.031Z,101496
2017-10-12T19:50:26.859Z,101512
2017-10-12T19:52:56.665Z,101505
2017-10-12T19:55:25.529Z,101507
2017-10-12T19:57:54.132Z,101511
2017-10-12T20:00:23.078Z,101510
2017-10-12T20:02:52.694Z,101510
2017-10-12T20:05:21.327Z,101508
2017-10-12T20:07:50.856Z,101511
2017-10-12T20:10:20.493Z,101506
2017-10-12T20:12:50.151Z,101515
2017-10-12T20:15:18.875Z,101506
2017-10-12T20:17:48.039Z,101520
2017-10-12T20:20:17.170Z,101512
2017-10-12T20:22:46.035Z,101517
2017-10-12T20:25:14.879Z,101527
2017-10-12T20:27:44.644Z,101516
2017-10-12T20:30:13.449Z,101530
2017-10-12T20:32:43.060Z,101530
2017-10-12T20:35:12.231Z,101534
2017-10-12T20:37:41.046Z,101528
2017-10-12T20:40:09.827Z,101533
2017-10-12T20:42:38.471Z,101535
2017-10-12T20:45:08.427Z,101534
2017-10-12T20:47:37.041Z,101540
2017-10-12T20:50:05.447Z,101543
2017-10-12T20:52:34.207Z,101538
2017-10-12T20:57:31.973Z,101541
2017-10-12T21:00:00.707Z,101541
2017-10-12T21:04:59.304Z,101533
2017-10-12T21:07:28.578Z,101530
2017-10-12T21:09:57.208Z,101532
2017-10-12T21:12:27.171Z,101532
2017-10-12T21:14:55.478Z,101538
2017-10-12T21:17:24.270Z,101546
2017-10-12T21:19:53.199Z,101530
2017-10-12T21:22:21.908Z,101533
2017-10-12T21:24:50.544Z,101522
2017-10-12T21:27:19.254Z,101531
2017-10-12T21:29:47.868Z,101526
2017-10-12T21:32:17.065Z,101521
2017-10-12T21:34:46.020Z,101525
2017-10-12T21:37:14.327Z,101526
2017-10-12T21:39:42.743Z,101519
2017-10-12T21:42:11.878Z,101523
2017-10-12T21:44:41.298Z,101527
2017-10-12T21:47:10.391Z,101525
2017-10-12T21:49:38.890Z,101528
2017-10-12T21:52:07.775Z,101531
2017-10-12T21:54:36.503Z,101524
2017-10-12T21:57:06.613Z,101523
2017-10-12T21:59:35.689Z,101525
2017-10-12T22:02:04.779Z,101533
2017-10-12T22:04:33.103Z,101520
2017-10-12T22:07:02.847Z,101524
2017-10-12T22:09:32.067Z,101526
2017-10-12T22:12:00.754Z,101519
2017-10-12T22:14:29.642Z,101520
2017-10-12T22:16:58.322Z,101523
2017-10-12T22:19:27.707Z,101525
2017-10-12T22:21:56.291Z,101525
2017-10-12T22:24:25.190Z,101527
2017-10-12T22:26:53.892Z,101520
2017-10-12T22:29:22.598Z,101515
2017-10-12T22:31:51.246Z,101519
2017-10-12T22:34:20.407Z,101522
2017-10-12T22:36:50.159Z,101505
2017-10-12T22:39:18.961Z,101518
2017-10-12T22:41:48.057Z,101520
2017-10-12T22:44:17.098Z,101508
2017-10-12T22:46:46.044Z,101499
2017-10-12T22:49:14.730Z,101494
2017-10-12T22:51:43.602Z,101496
2017-10-12T22:54:12.308Z,101498
2017-10-12T22:56:41.199Z,101496
2017-10-12T22:59:10.704Z,101501
2017-10-12T23:01:40.212Z,101512
2017-10-12T23:04:08.872Z,101520
2017-10-12T23:06:37.706Z,101508
2017-10-12T23:09:07.067Z,101518
2017-10-12T23:11:36.183Z,101530
2017-10-12T23:14:05.055Z,101519
2017-10-12T23:16:34.254Z,101520
2017-10-12T23:19:02.837Z,101516
2017-10-12T23:21:32.158Z,101512
2017-10-12T23:24:01.253Z,101515
2017-10-12T23:26:30.119Z,101514
2017-10-12T23:28:59.858Z,101519
2017-10-12T23:31:29.279Z,101521
2017-10-12T23:33:58.229Z,101523
2017-10-12T23:36:26.703Z,101523
2017-10-12T23:38:55.604Z,101521
2017-10-12T23:41:24.996Z,101536
2017-10-12T23:43:54.410Z,101533
2017-10-12T23:46:23.422Z,101532
2017-10-12T23:48:51.758Z,101547
2017-10-12T23:51:20.471Z,101538
2017-10-12T23:53:49.953Z,101546
2017-10-12T23:56:18.955Z,101548
2017-10-12T23:58:47.981Z,101542
